sensor_id;sensor_type;location;lat;lon;timestamp;temperature;humidity
17364;DHT22;8799;43.594;13.526;2022-09-17T00:01:26;24.60;99.60
17364;DHT22;8799;43.594;13.526;2022-09-17T00:03:55;24.60;99.70
17364;DHT22;8799;43.594;13.526;2022-09-17T00:06:25;24.60;99.60
17364;DHT22;8799;43.594;13.526;2022-09-17T00:08:53;24.70;99.80
17364;DHT22;8799;43.594;13.526;2022-09-17T00:11:23;24.70;99.80
17364;DHT22;8799;43.594;13.526;2022-09-17T00:13:52;24.60;99.60
17364;DHT22;8799;43.594;13.526;2022-09-17T00:16:24;24.60;99.70
17364;DHT22;8799;43.594;13.526;2022-09-17T00:18:53;24.60;99.60
17364;DHT22;8799;43.594;13.526;2022-09-17T00:21:22;24.60;99.60
17364;DHT22;8799;43.594;13.526;2022-09-17T00:23:55;24.80;99.80
17364;DHT22;8799;43.594;13.526;2022-09-17T00:26:24;24.60;99.60
17364;DHT22;8799;43.594;13.526;2022-09-17T00:28:53;24.60;99.60
17364;DHT22;8799;43.594;13.526;2022-09-17T00:31:24;24.60;99.60
17364;DHT22;8799;43.594;13.526;2022-09-17T00:33:52;24.60;99.50
17364;DHT22;8799;43.594;13.526;2022-09-17T00:36:20;24.60;99.60
17364;DHT22;8799;43.594;13.526;2022-09-17T00:38:49;24.60;99.60
17364;DHT22;8799;43.594;13.526;2022-09-17T00:41:24;24.60;99.70
17364;DHT22;8799;43.594;13.526;2022-09-17T00:43:54;24.60;99.70
17364;DHT22;8799;43.594;13.526;2022-09-17T00:46:30;24.60;99.70
17364;DHT22;8799;43.594;13.526;2022-09-17T00:49:02;24.60;99.90
17364;DHT22;8799;43.594;13.526;2022-09-17T00:51:34;24.60;99.90
17364;DHT22;8799;43.594;13.526;2022-09-17T00:54:05;24.60;99.90
17364;DHT22;8799;43.594;13.526;2022-09-17T00:56:37;24.60;99.90
17364;DHT22;8799;43.594;13.526;2022-09-17T00:59:05;24.60;99.90
17364;DHT22;8799;43.594;13.526;2022-09-17T01:01:35;24.60;99.90
17364;DHT22;8799;43.594;13.526;2022-09-17T01:04:09;24.60;99.90
17364;DHT22;8799;43.594;13.526;2022-09-17T01:06:47;24.60;99.90
17364;DHT22;8799;43.594;13.526;2022-09-17T01:09:25;24.60;99.90
17364;DHT22;8799;43.594;13.526;2022-09-17T01:12:16;24.60;99.90
17364;DHT22;8799;43.594;13.526;2022-09-17T01:14:59;24.60;99.90
17364;DHT22;8799;43.594;13.526;2022-09-17T01:17:35;24.50;99.90
17364;DHT22;8799;43.594;13.526;2022-09-17T01:20:29;24.60;99.90
17364;DHT22;8799;43.594;13.526;2022-09-17T01:26:10;24.60;99.90
17364;DHT22;8799;43.594;13.526;2022-09-17T01:28:46;24.60;99.90
17364;DHT22;8799;43.594;13.526;2022-09-17T01:31:32;24.60;99.90
17364;DHT22;8799;43.594;13.526;2022-09-17T01:34:08;24.60;99.90
17364;DHT22;8799;43.594;13.526;2022-09-17T01:36:48;24.60;99.90
17364;DHT22;8799;43.594;13.526;2022-09-17T01:39:27;24.60;99.90
17364;DHT22;8799;43.594;13.526;2022-09-17T01:42:03;24.60;99.90
17364;DHT22;8799;43.594;13.526;2022-09-17T01:44:36;24.60;99.90
17364;DHT22;8799;43.594;13.526;2022-09-17T01:47:10;24.60;99.90
17364;DHT22;8799;43.594;13.526;2022-09-17T01:49:40;24.60;99.90
17364;DHT22;8799;43.594;13.526;2022-09-17T01:52:10;24.60;99.90
17364;DHT22;8799;43.594;13.526;2022-09-17T01:54:43;24.50;99.90
17364;DHT22;8799;43.594;13.526;2022-09-17T01:57:16;24.60;99.90
17364;DHT22;8799;43.594;13.526;2022-09-17T01:59:48;24.60;99.90
17364;DHT22;8799;43.594;13.526;2022-09-17T02:02:22;24.60;99.90
17364;DHT22;8799;43.594;13.526;2022-09-17T02:04:57;24.50;99.90
17364;DHT22;8799;43.594;13.526;2022-09-17T02:07:29;24.50;99.90
17364;DHT22;8799;43.594;13.526;2022-09-17T02:10:02;24.60;99.90
17364;DHT22;8799;43.594;13.526;2022-09-17T02:12:34;24.60;99.90
17364;DHT22;8799;43.594;13.526;2022-09-17T02:15:08;24.60;99.90
17364;DHT22;8799;43.594;13.526;2022-09-17T02:17:43;24.60;99.90
17364;DHT22;8799;43.594;13.526;2022-09-17T02:20:14;24.60;99.90
17364;DHT22;8799;43.594;13.526;2022-09-17T02:22:48;24.60;99.90
17364;DHT22;8799;43.594;13.526;2022-09-17T02:25:21;24.60;99.90
17364;DHT22;8799;43.594;13.526;2022-09-17T02:27:57;24.60;99.90
17364;DHT22;8799;43.594;13.526;2022-09-17T02:30:27;24.60;99.90
17364;DHT22;8799;43.594;13.526;2022-09-17T02:32:58;24.60;99.90
17364;DHT22;8799;43.594;13.526;2022-09-17T02:35:30;24.60;99.90
17364;DHT22;8799;43.594;13.526;2022-09-17T02:37:59;24.60;99.90
17364;DHT22;8799;43.594;13.526;2022-09-17T02:40:30;24.60;99.90
17364;DHT22;8799;43.594;13.526;2022-09-17T02:43:09;24.60;99.90
17364;DHT22;8799;43.594;13.526;2022-09-17T02:45:48;24.60;99.90
17364;DHT22;8799;43.594;13.526;2022-09-17T02:48:45;24.60;99.90
17364;DHT22;8799;43.594;13.526;2022-09-17T02:51:25;24.60;99.70
17364;DHT22;8799;43.594;13.526;2022-09-17T02:54:08;24.60;99.70
17364;DHT22;8799;43.594;13.526;2022-09-17T02:56:43;24.50;99.40
17364;DHT22;8799;43.594;13.526;2022-09-17T02:59:17;24.50;99.30
17364;DHT22;8799;43.594;13.526;2022-09-17T03:01:49;24.50;99.10
17364;DHT22;8799;43.594;13.526;2022-09-17T03:04:22;24.60;99.10
17364;DHT22;8799;43.594;13.526;2022-09-17T03:06:52;24.50;99.00
17364;DHT22;8799;43.594;13.526;2022-09-17T03:09:20;24.50;99.00
17364;DHT22;8799;43.594;13.526;2022-09-17T03:11:49;24.60;98.90
17364;DHT22;8799;43.594;13.526;2022-09-17T03:14:18;24.50;98.90
17364;DHT22;8799;43.594;13.526;2022-09-17T03:16:49;24.50;98.80
17364;DHT22;8799;43.594;13.526;2022-09-17T03:19:23;24.50;98.80
17364;DHT22;8799;43.594;13.526;2022-09-17T03:21:51;24.50;98.70
17364;DHT22;8799;43.594;13.526;2022-09-17T03:24:20;24.50;98.60
17364;DHT22;8799;43.594;13.526;2022-09-17T03:26:49;24.50;98.40
17364;DHT22;8799;43.594;13.526;2022-09-17T03:29:17;24.50;98.50
17364;DHT22;8799;43.594;13.526;2022-09-17T03:31:58;24.50;98.40
17364;DHT22;8799;43.594;13.526;2022-09-17T03:34:27;24.50;98.30
17364;DHT22;8799;43.594;13.526;2022-09-17T03:36:56;24.50;98.20
17364;DHT22;8799;43.594;13.526;2022-09-17T03:39:25;24.50;98.20
17364;DHT22;8799;43.594;13.526;2022-09-17T03:41:54;24.50;98.10
17364;DHT22;8799;43.594;13.526;2022-09-17T03:44:22;24.40;98.00
17364;DHT22;8799;43.594;13.526;2022-09-17T03:46:50;24.40;97.90
17364;DHT22;8799;43.594;13.526;2022-09-17T03:49:18;24.40;97.50
17364;DHT22;8799;43.594;13.526;2022-09-17T03:51:48;24.40;97.30
17364;DHT22;8799;43.594;13.526;2022-09-17T03:54:16;24.40;97.10
17364;DHT22;8799;43.594;13.526;2022-09-17T03:56:44;24.40;96.90
17364;DHT22;8799;43.594;13.526;2022-09-17T03:59:12;24.40;97.00
17364;DHT22;8799;43.594;13.526;2022-09-17T04:01:40;24.40;96.90
17364;DHT22;8799;43.594;13.526;2022-09-17T04:04:09;24.40;96.80
17364;DHT22;8799;43.594;13.526;2022-09-17T04:06:40;24.30;96.80
17364;DHT22;8799;43.594;13.526;2022-09-17T04:09:09;23.70;96.20
17364;DHT22;8799;43.594;13.526;2022-09-17T04:11:37;24.30;96.40
17364;DHT22;8799;43.594;13.526;2022-09-17T04:14:05;24.30;95.90
17364;DHT22;8799;43.594;13.526;2022-09-17T04:16:34;24.30;95.00
17364;DHT22;8799;43.594;13.526;2022-09-17T04:19:02;24.30;94.80
17364;DHT22;8799;43.594;13.526;2022-09-17T04:21:29;24.30;95.00
17364;DHT22;8799;43.594;13.526;2022-09-17T04:24:00;24.40;95.00
17364;DHT22;8799;43.594;13.526;2022-09-17T04:26:30;24.40;95.10
17364;DHT22;8799;43.594;13.526;2022-09-17T04:28:58;24.30;95.10
17364;DHT22;8799;43.594;13.526;2022-09-17T04:31:25;24.40;95.10
17364;DHT22;8799;43.594;13.526;2022-09-17T04:33:53;24.30;95.10
17364;DHT22;8799;43.594;13.526;2022-09-17T04:36:22;24.30;95.10
17364;DHT22;8799;43.594;13.526;2022-09-17T04:38:50;24.30;94.70
17364;DHT22;8799;43.594;13.526;2022-09-17T04:41:18;24.30;94.30
17364;DHT22;8799;43.594;13.526;2022-09-17T04:43:48;24.30;94.20
17364;DHT22;8799;43.594;13.526;2022-09-17T04:46:16;24.30;94.20
17364;DHT22;8799;43.594;13.526;2022-09-17T04:48:45;24.30;93.90
17364;DHT22;8799;43.594;13.526;2022-09-17T04:51:13;24.30;93.00
17364;DHT22;8799;43.594;13.526;2022-09-17T04:53:41;24.20;93.00
17364;DHT22;8799;43.594;13.526;2022-09-17T04:56:10;24.20;92.70
17364;DHT22;8799;43.594;13.526;2022-09-17T04:58:38;24.20;92.40
17364;DHT22;8799;43.594;13.526;2022-09-17T05:01:08;24.20;92.00
17364;DHT22;8799;43.594;13.526;2022-09-17T05:03:36;24.20;92.00
17364;DHT22;8799;43.594;13.526;2022-09-17T05:06:06;24.10;92.10
17364;DHT22;8799;43.594;13.526;2022-09-17T05:08:35;24.20;92.50
17364;DHT22;8799;43.594;13.526;2022-09-17T05:11:09;24.10;92.50
17364;DHT22;8799;43.594;13.526;2022-09-17T05:13:36;24.10;92.20
17364;DHT22;8799;43.594;13.526;2022-09-17T05:16:07;24.10;91.90
17364;DHT22;8799;43.594;13.526;2022-09-17T05:18:36;24.10;92.10
17364;DHT22;8799;43.594;13.526;2022-09-17T05:21:04;24.10;92.30
17364;DHT22;8799;43.594;13.526;2022-09-17T05:23:32;24.10;91.70
17364;DHT22;8799;43.594;13.526;2022-09-17T05:26:00;24.10;92.30
17364;DHT22;8799;43.594;13.526;2022-09-17T05:28:32;24.10;92.30
17364;DHT22;8799;43.594;13.526;2022-09-17T05:31:01;24.10;92.10
17364;DHT22;8799;43.594;13.526;2022-09-17T05:33:31;24.10;92.30
17364;DHT22;8799;43.594;13.526;2022-09-17T05:35:59;24.10;91.90
17364;DHT22;8799;43.594;13.526;2022-09-17T05:38:27;24.10;92.40
17364;DHT22;8799;43.594;13.526;2022-09-17T05:40:55;24.20;92.50
17364;DHT22;8799;43.594;13.526;2022-09-17T05:43:29;24.20;92.40
17364;DHT22;8799;43.594;13.526;2022-09-17T05:46:00;24.10;92.10
17364;DHT22;8799;43.594;13.526;2022-09-17T05:48:31;24.10;92.20
17364;DHT22;8799;43.594;13.526;2022-09-17T05:51:06;24.10;92.00
17364;DHT22;8799;43.594;13.526;2022-09-17T05:53:35;24.10;91.80
17364;DHT22;8799;43.594;13.526;2022-09-17T05:56:03;24.10;91.70
17364;DHT22;8799;43.594;13.526;2022-09-17T05:58:31;24.10;91.50
17364;DHT22;8799;43.594;13.526;2022-09-17T06:01:00;24.10;91.40
17364;DHT22;8799;43.594;13.526;2022-09-17T06:03:28;24.10;91.40
17364;DHT22;8799;43.594;13.526;2022-09-17T06:05:58;24.10;91.10
17364;DHT22;8799;43.594;13.526;2022-09-17T06:08:27;24.10;89.40
17364;DHT22;8799;43.594;13.526;2022-09-17T06:10:55;24.00;88.80
17364;DHT22;8799;43.594;13.526;2022-09-17T06:13:23;24.00;86.70
17364;DHT22;8799;43.594;13.526;2022-09-17T06:15:52;24.00;85.80
17364;DHT22;8799;43.594;13.526;2022-09-17T06:18:20;23.90;85.30
17364;DHT22;8799;43.594;13.526;2022-09-17T06:20:52;23.90;84.70
17364;DHT22;8799;43.594;13.526;2022-09-17T06:23:23;23.90;84.40
17364;DHT22;8799;43.594;13.526;2022-09-17T06:25:52;23.90;84.30
17364;DHT22;8799;43.594;13.526;2022-09-17T06:28:22;23.80;84.00
17364;DHT22;8799;43.594;13.526;2022-09-17T06:30:50;23.90;84.30
17364;DHT22;8799;43.594;13.526;2022-09-17T06:33:19;23.90;84.00
17364;DHT22;8799;43.594;13.526;2022-09-17T06:35:48;23.90;84.10
17364;DHT22;8799;43.594;13.526;2022-09-17T06:38:16;23.90;84.60
17364;DHT22;8799;43.594;13.526;2022-09-17T06:40:49;23.90;84.00
17364;DHT22;8799;43.594;13.526;2022-09-17T06:43:18;23.90;84.50
17364;DHT22;8799;43.594;13.526;2022-09-17T06:45:51;24.00;84.50
17364;DHT22;8799;43.594;13.526;2022-09-17T06:48:19;24.00;85.00
17364;DHT22;8799;43.594;13.526;2022-09-17T06:50:47;24.00;85.40
17364;DHT22;8799;43.594;13.526;2022-09-17T06:53:15;24.00;85.10
17364;DHT22;8799;43.594;13.526;2022-09-17T06:55:44;24.00;85.00
17364;DHT22;8799;43.594;13.526;2022-09-17T06:58:16;24.10;85.80
17364;DHT22;8799;43.594;13.526;2022-09-17T07:00:43;24.10;86.00
17364;DHT22;8799;43.594;13.526;2022-09-17T07:03:12;24.10;85.10
17364;DHT22;8799;43.594;13.526;2022-09-17T07:05:43;24.20;85.10
17364;DHT22;8799;43.594;13.526;2022-09-17T07:08:13;24.20;85.20
17364;DHT22;8799;43.594;13.526;2022-09-17T07:10:45;24.20;85.50
17364;DHT22;8799;43.594;13.526;2022-09-17T07:13:13;24.10;85.70
17364;DHT22;8799;43.594;13.526;2022-09-17T07:15:43;24.10;86.30
17364;DHT22;8799;43.594;13.526;2022-09-17T07:18:19;24.10;87.70
17364;DHT22;8799;43.594;13.526;2022-09-17T07:20:52;24.20;87.90
17364;DHT22;8799;43.594;13.526;2022-09-17T07:23:22;24.20;88.00
17364;DHT22;8799;43.594;13.526;2022-09-17T07:25:51;24.20;87.80
17364;DHT22;8799;43.594;13.526;2022-09-17T07:28:20;24.20;88.20
17364;DHT22;8799;43.594;13.526;2022-09-17T07:30:50;24.20;88.40
17364;DHT22;8799;43.594;13.526;2022-09-17T07:33:21;24.20;88.50
17364;DHT22;8799;43.594;13.526;2022-09-17T07:35:53;24.10;88.70
17364;DHT22;8799;43.594;13.526;2022-09-17T07:38:21;24.20;88.90
17364;DHT22;8799;43.594;13.526;2022-09-17T07:40:57;24.20;89.00
17364;DHT22;8799;43.594;13.526;2022-09-17T07:43:26;24.20;89.10
17364;DHT22;8799;43.594;13.526;2022-09-17T07:45:57;24.20;89.10
17364;DHT22;8799;43.594;13.526;2022-09-17T07:48:26;24.20;89.30
17364;DHT22;8799;43.594;13.526;2022-09-17T07:50:54;24.20;89.30
17364;DHT22;8799;43.594;13.526;2022-09-17T07:53:22;24.20;89.30
17364;DHT22;8799;43.594;13.526;2022-09-17T07:55:51;24.10;89.40
17364;DHT22;8799;43.594;13.526;2022-09-17T07:58:20;24.10;89.60
17364;DHT22;8799;43.594;13.526;2022-09-17T08:00:48;24.10;89.70
17364;DHT22;8799;43.594;13.526;2022-09-17T08:03:19;24.10;90.00
17364;DHT22;8799;43.594;13.526;2022-09-17T08:05:47;24.10;90.10
17364;DHT22;8799;43.594;13.526;2022-09-17T08:08:15;24.10;90.30
17364;DHT22;8799;43.594;13.526;2022-09-17T08:10:43;24.10;90.30
17364;DHT22;8799;43.594;13.526;2022-09-17T08:13:11;24.10;90.50
17364;DHT22;8799;43.594;13.526;2022-09-17T08:15:41;24.10;90.60
17364;DHT22;8799;43.594;13.526;2022-09-17T08:18:09;24.10;90.70
17364;DHT22;8799;43.594;13.526;2022-09-17T08:20:39;24.10;90.80
17364;DHT22;8799;43.594;13.526;2022-09-17T08:23:08;24.10;91.00
17364;DHT22;8799;43.594;13.526;2022-09-17T08:25:36;24.10;91.10
17364;DHT22;8799;43.594;13.526;2022-09-17T08:28:04;24.10;91.20
17364;DHT22;8799;43.594;13.526;2022-09-17T08:30:31;24.10;91.30
17364;DHT22;8799;43.594;13.526;2022-09-17T08:32:59;24.10;91.50
17364;DHT22;8799;43.594;13.526;2022-09-17T08:35:27;24.20;91.70
17364;DHT22;8799;43.594;13.526;2022-09-17T08:37:57;24.10;91.90
17364;DHT22;8799;43.594;13.526;2022-09-17T08:40:25;24.20;92.00
17364;DHT22;8799;43.594;13.526;2022-09-17T08:42:55;24.20;92.20
17364;DHT22;8799;43.594;13.526;2022-09-17T08:45:25;24.10;92.40
17364;DHT22;8799;43.594;13.526;2022-09-17T08:47:58;24.10;92.70
17364;DHT22;8799;43.594;13.526;2022-09-17T08:50:31;24.20;92.90
17364;DHT22;8799;43.594;13.526;2022-09-17T08:53:31;24.10;93.00
17364;DHT22;8799;43.594;13.526;2022-09-17T08:56:09;24.10;93.40
17364;DHT22;8799;43.594;13.526;2022-09-17T08:58:59;24.20;93.50
17364;DHT22;8799;43.594;13.526;2022-09-17T09:01:37;24.10;93.60
17364;DHT22;8799;43.594;13.526;2022-09-17T09:04:19;24.10;93.70
17364;DHT22;8799;43.594;13.526;2022-09-17T09:06:57;24.10;94.00
17364;DHT22;8799;43.594;13.526;2022-09-17T09:09:33;24.10;94.30
17364;DHT22;8799;43.594;13.526;2022-09-17T09:12:04;24.10;94.40
17364;DHT22;8799;43.594;13.526;2022-09-17T09:14:36;24.10;94.40
17364;DHT22;8799;43.594;13.526;2022-09-17T09:17:09;24.10;94.50
17364;DHT22;8799;43.594;13.526;2022-09-17T09:19:41;24.10;94.30
17364;DHT22;8799;43.594;13.526;2022-09-17T09:22:26;24.10;94.70
17364;DHT22;8799;43.594;13.526;2022-09-17T09:25:04;24.10;94.50
17364;DHT22;8799;43.594;13.526;2022-09-17T09:27:41;24.10;94.70
17364;DHT22;8799;43.594;13.526;2022-09-17T09:30:13;24.10;94.70
17364;DHT22;8799;43.594;13.526;2022-09-17T09:32:50;24.10;94.80
17364;DHT22;8799;43.594;13.526;2022-09-17T09:35:22;24.10;94.90
17364;DHT22;8799;43.594;13.526;2022-09-17T09:37:56;24.10;94.80
17364;DHT22;8799;43.594;13.526;2022-09-17T09:40:33;24.10;94.90
17364;DHT22;8799;43.594;13.526;2022-09-17T09:43:09;24.10;95.10
17364;DHT22;8799;43.594;13.526;2022-09-17T09:45:58;24.10;95.10
17364;DHT22;8799;43.594;13.526;2022-09-17T09:48:34;24.10;95.20
17364;DHT22;8799;43.594;13.526;2022-09-17T09:51:14;24.10;95.30
17364;DHT22;8799;43.594;13.526;2022-09-17T09:53:53;24.10;95.30
17364;DHT22;8799;43.594;13.526;2022-09-17T09:59:19;24.10;95.50
17364;DHT22;8799;43.594;13.526;2022-09-17T10:01:47;24.10;96.20
17364;DHT22;8799;43.594;13.526;2022-09-17T10:04:18;24.10;96.70
17364;DHT22;8799;43.594;13.526;2022-09-17T10:06:47;24.10;97.20
17364;DHT22;8799;43.594;13.526;2022-09-17T10:09:17;24.10;98.00
17364;DHT22;8799;43.594;13.526;2022-09-17T10:12:03;24.00;98.50
17364;DHT22;8799;43.594;13.526;2022-09-17T10:14:33;24.00;98.80
17364;DHT22;8799;43.594;13.526;2022-09-17T10:17:21;24.00;99.50
17364;DHT22;8799;43.594;13.526;2022-09-17T10:20:14;23.90;99.90
17364;DHT22;8799;43.594;13.526;2022-09-17T10:22:42;23.90;99.90
17364;DHT22;8799;43.594;13.526;2022-09-17T10:25:28;23.80;99.90
17364;DHT22;8799;43.594;13.526;2022-09-17T10:28:02;23.70;99.90
17364;DHT22;8799;43.594;13.526;2022-09-17T10:30:31;23.70;99.90
17364;DHT22;8799;43.594;13.526;2022-09-17T10:33:17;23.60;99.90
17364;DHT22;8799;43.594;13.526;2022-09-17T10:36:01;23.50;99.90
17364;DHT22;8799;43.594;13.526;2022-09-17T10:38:34;23.50;99.90
17364;DHT22;8799;43.594;13.526;2022-09-17T10:41:14;23.60;99.90
17364;DHT22;8799;43.594;13.526;2022-09-17T10:43:44;23.60;99.90
17364;DHT22;8799;43.594;13.526;2022-09-17T10:46:16;23.70;99.90
17364;DHT22;8799;43.594;13.526;2022-09-17T10:49:04;23.70;99.90
17364;DHT22;8799;43.594;13.526;2022-09-17T10:51:35;23.80;99.90
17364;DHT22;8799;43.594;13.526;2022-09-17T10:54:17;23.80;99.90
17364;DHT22;8799;43.594;13.526;2022-09-17T10:56:53;23.90;99.90
17364;DHT22;8799;43.594;13.526;2022-09-17T10:59:48;23.80;99.90
17364;DHT22;8799;43.594;13.526;2022-09-17T11:05:33;23.70;99.90
17364;DHT22;8799;43.594;13.526;2022-09-17T11:08:10;23.60;99.20
17364;DHT22;8799;43.594;13.526;2022-09-17T11:10:48;23.60;98.90
17364;DHT22;8799;43.594;13.526;2022-09-17T11:13:24;23.60;98.70
17364;DHT22;8799;43.594;13.526;2022-09-17T11:16:09;23.50;98.50
17364;DHT22;8799;43.594;13.526;2022-09-17T11:18:40;23.50;98.20
17364;DHT22;8799;43.594;13.526;2022-09-17T11:21:37;23.40;98.00
17364;DHT22;8799;43.594;13.526;2022-09-17T11:24:36;23.40;97.50
17364;DHT22;8799;43.594;13.526;2022-09-17T11:27:22;23.40;97.00
17364;DHT22;8799;43.594;13.526;2022-09-17T11:30:04;23.30;96.40
17364;DHT22;8799;43.594;13.526;2022-09-17T11:35:46;23.30;95.60
17364;DHT22;8799;43.594;13.526;2022-09-17T11:38:19;23.20;94.80
17364;DHT22;8799;43.594;13.526;2022-09-17T11:40:54;23.20;94.80
17364;DHT22;8799;43.594;13.526;2022-09-17T11:43:26;23.20;93.90
17364;DHT22;8799;43.594;13.526;2022-09-17T11:46:01;23.20;93.80
17364;DHT22;8799;43.594;13.526;2022-09-17T11:48:36;23.20;94.20
17364;DHT22;8799;43.594;13.526;2022-09-17T11:51:13;23.20;93.80
17364;DHT22;8799;43.594;13.526;2022-09-17T11:53:48;23.20;93.50
17364;DHT22;8799;43.594;13.526;2022-09-17T11:56:22;23.20;92.90
17364;DHT22;8799;43.594;13.526;2022-09-17T11:58:54;23.10;92.00
17364;DHT22;8799;43.594;13.526;2022-09-17T12:01:29;23.10;91.40
17364;DHT22;8799;43.594;13.526;2022-09-17T12:04:04;23.10;91.30
17364;DHT22;8799;43.594;13.526;2022-09-17T12:06:42;23.10;90.80
17364;DHT22;8799;43.594;13.526;2022-09-17T12:09:14;23.10;90.30
17364;DHT22;8799;43.594;13.526;2022-09-17T12:11:49;23.00;89.80
17364;DHT22;8799;43.594;13.526;2022-09-17T12:14:22;23.00;89.50
17364;DHT22;8799;43.594;13.526;2022-09-17T12:16:55;23.00;89.20
17364;DHT22;8799;43.594;13.526;2022-09-17T12:19:38;23.00;88.70
17364;DHT22;8799;43.594;13.526;2022-09-17T12:22:09;23.00;88.50
17364;DHT22;8799;43.594;13.526;2022-09-17T12:24:40;23.00;87.90
17364;DHT22;8799;43.594;13.526;2022-09-17T12:27:16;23.00;87.30
17364;DHT22;8799;43.594;13.526;2022-09-17T12:30:05;23.00;86.80
17364;DHT22;8799;43.594;13.526;2022-09-17T12:38:57;22.90;86.00
17364;DHT22;8799;43.594;13.526;2022-09-17T12:41:34;22.90;85.50
17364;DHT22;8799;43.594;13.526;2022-09-17T12:44:18;22.90;85.10
17364;DHT22;8799;43.594;13.526;2022-09-17T12:47:02;22.80;84.60
17364;DHT22;8799;43.594;13.526;2022-09-17T12:49:43;22.80;85.00
17364;DHT22;8799;43.594;13.526;2022-09-17T12:52:25;22.90;85.30
17364;DHT22;8799;43.594;13.526;2022-09-17T12:57:57;22.90;85.60
17364;DHT22;8799;43.594;13.526;2022-09-17T13:00:27;22.90;85.40
17364;DHT22;8799;43.594;13.526;2022-09-17T13:03:00;22.90;85.70
17364;DHT22;8799;43.594;13.526;2022-09-17T13:05:57;22.90;86.10
17364;DHT22;8799;43.594;13.526;2022-09-17T13:08:57;22.90;85.80
17364;DHT22;8799;43.594;13.526;2022-09-17T13:17:34;22.80;85.10
17364;DHT22;8799;43.594;13.526;2022-09-17T13:20:14;22.80;84.30
17364;DHT22;8799;43.594;13.526;2022-09-17T13:22:44;22.80;85.10
17364;DHT22;8799;43.594;13.526;2022-09-17T13:25:17;22.80;85.80
17364;DHT22;8799;43.594;13.526;2022-09-17T13:27:45;22.90;85.70
17364;DHT22;8799;43.594;13.526;2022-09-17T13:30:14;22.90;85.50
17364;DHT22;8799;43.594;13.526;2022-09-17T13:32:49;22.80;84.60
17364;DHT22;8799;43.594;13.526;2022-09-17T13:35:49;22.80;84.80
17364;DHT22;8799;43.594;13.526;2022-09-17T13:38:19;22.80;85.20
17364;DHT22;8799;43.594;13.526;2022-09-17T13:40:50;22.80;85.00
17364;DHT22;8799;43.594;13.526;2022-09-17T13:43:23;22.80;84.80
17364;DHT22;8799;43.594;13.526;2022-09-17T13:46:07;22.80;85.00
17364;DHT22;8799;43.594;13.526;2022-09-17T13:48:55;22.80;84.50
17364;DHT22;8799;43.594;13.526;2022-09-17T13:51:48;22.80;84.30
17364;DHT22;8799;43.594;13.526;2022-09-17T13:54:19;22.90;84.50
17364;DHT22;8799;43.594;13.526;2022-09-17T13:59:56;22.90;84.60
17364;DHT22;8799;43.594;13.526;2022-09-17T14:02:35;22.90;85.50
17364;DHT22;8799;43.594;13.526;2022-09-17T14:05:24;22.90;85.00
17364;DHT22;8799;43.594;13.526;2022-09-17T14:10:55;22.90;85.70
17364;DHT22;8799;43.594;13.526;2022-09-17T14:13:53;22.90;85.90
17364;DHT22;8799;43.594;13.526;2022-09-17T14:16:39;23.00;88.10
17364;DHT22;8799;43.594;13.526;2022-09-17T14:19:32;23.00;87.10
17364;DHT22;8799;43.594;13.526;2022-09-17T14:22:14;23.00;86.40
17364;DHT22;8799;43.594;13.526;2022-09-17T14:24:48;23.00;87.70
17364;DHT22;8799;43.594;13.526;2022-09-17T14:27:32;23.00;87.50
17364;DHT22;8799;43.594;13.526;2022-09-17T14:30:11;23.00;88.40
17364;DHT22;8799;43.594;13.526;2022-09-17T14:32:43;23.00;87.60
17364;DHT22;8799;43.594;13.526;2022-09-17T14:35:16;23.00;87.70
17364;DHT22;8799;43.594;13.526;2022-09-17T14:37:48;23.00;87.20
17364;DHT22;8799;43.594;13.526;2022-09-17T14:40:19;23.00;87.70
17364;DHT22;8799;43.594;13.526;2022-09-17T14:42:51;23.00;88.20
17364;DHT22;8799;43.594;13.526;2022-09-17T14:45:27;22.90;81.30
17364;DHT22;8799;43.594;13.526;2022-09-17T14:54:15;22.40;80.50
17364;DHT22;8799;43.594;13.526;2022-09-17T14:56:55;22.30;81.50
17364;DHT22;8799;43.594;13.526;2022-09-17T15:02:32;22.30;81.00
17364;DHT22;8799;43.594;13.526;2022-09-17T15:05:11;22.20;79.70
17364;DHT22;8799;43.594;13.526;2022-09-17T15:07:44;22.20;79.00
17364;DHT22;8799;43.594;13.526;2022-09-17T15:10:18;22.20;79.20
17364;DHT22;8799;43.594;13.526;2022-09-17T15:12:48;22.20;78.80
17364;DHT22;8799;43.594;13.526;2022-09-17T15:15:19;22.20;78.60
17364;DHT22;8799;43.594;13.526;2022-09-17T15:17:50;22.20;78.60
17364;DHT22;8799;43.594;13.526;2022-09-17T15:20:20;22.20;78.90
17364;DHT22;8799;43.594;13.526;2022-09-17T15:22:52;22.20;78.40
17364;DHT22;8799;43.594;13.526;2022-09-17T15:25:22;22.20;78.40
17364;DHT22;8799;43.594;13.526;2022-09-17T15:27:54;22.20;78.80
17364;DHT22;8799;43.594;13.526;2022-09-17T15:30:24;22.20;78.90
17364;DHT22;8799;43.594;13.526;2022-09-17T15:32:55;22.30;77.70
17364;DHT22;8799;43.594;13.526;2022-09-17T15:35:25;22.20;77.90
17364;DHT22;8799;43.594;13.526;2022-09-17T15:37:59;22.20;78.10
17364;DHT22;8799;43.594;13.526;2022-09-17T15:40:32;22.20;77.50
17364;DHT22;8799;43.594;13.526;2022-09-17T15:43:11;22.20;77.70
17364;DHT22;8799;43.594;13.526;2022-09-17T15:45:42;22.20;77.70
17364;DHT22;8799;43.594;13.526;2022-09-17T15:48:35;22.20;77.20
17364;DHT22;8799;43.594;13.526;2022-09-17T15:51:20;22.20;77.30
17364;DHT22;8799;43.594;13.526;2022-09-17T15:53:53;22.20;76.80
17364;DHT22;8799;43.594;13.526;2022-09-17T15:56:23;22.10;77.10
17364;DHT22;8799;43.594;13.526;2022-09-17T15:58:55;22.10;76.80
17364;DHT22;8799;43.594;13.526;2022-09-17T16:01:49;22.10;76.50
17364;DHT22;8799;43.594;13.526;2022-09-17T16:04:29;22.10;76.00
17364;DHT22;8799;43.594;13.526;2022-09-17T16:07:00;22.10;76.00
17364;DHT22;8799;43.594;13.526;2022-09-17T16:09:38;22.10;76.00
17364;DHT22;8799;43.594;13.526;2022-09-17T16:12:07;22.10;75.10
17364;DHT22;8799;43.594;13.526;2022-09-17T16:14:41;22.00;74.80
17364;DHT22;8799;43.594;13.526;2022-09-17T16:17:40;22.00;74.70
17364;DHT22;8799;43.594;13.526;2022-09-17T16:20:17;22.00;74.60
17364;DHT22;8799;43.594;13.526;2022-09-17T16:22:45;22.00;74.20
17364;DHT22;8799;43.594;13.526;2022-09-17T16:25:14;22.00;74.30
17364;DHT22;8799;43.594;13.526;2022-09-17T16:27:45;22.00;74.50
17364;DHT22;8799;43.594;13.526;2022-09-17T16:30:16;21.90;74.60
17364;DHT22;8799;43.594;13.526;2022-09-17T16:32:44;21.90;74.70
17364;DHT22;8799;43.594;13.526;2022-09-17T16:35:15;22.00;74.60
17364;DHT22;8799;43.594;13.526;2022-09-17T16:37:46;22.00;74.70
17364;DHT22;8799;43.594;13.526;2022-09-17T16:40:14;22.00;74.40
17364;DHT22;8799;43.594;13.526;2022-09-17T16:42:42;21.80;73.30
17364;DHT22;8799;43.594;13.526;2022-09-17T16:45:10;21.60;72.90
17364;DHT22;8799;43.594;13.526;2022-09-17T16:47:39;21.40;73.10
17364;DHT22;8799;43.594;13.526;2022-09-17T16:50:09;21.20;73.60
17364;DHT22;8799;43.594;13.526;2022-09-17T16:52:39;21.20;74.20